Time;durP1;ratioP1;P1;durP2;ratioP2;P2;SDS_P1;SDS_P2;PMS_P1;PMS_P2;Temp;Humidity;BMP_temperature;BMP_pressure;BME280_temperature;BME280_humidity;BME280_pressure;Samples;Min_cycle;Max_cycle;Signal;HPM_P1;HPM_P2
2022/07/25 00:00:18;;;;;;;;;12.75;12.50;;;;;28.96;31.03;100590.56;5001280;28;45881;-59
2022/07/25 00:02:44;;;;;;;;;14.00;12.75;;;;;28.94;31.15;100587.13;5010258;28;45271;-59
2022/07/25 00:05:09;;;;;;;;;17.50;15.25;;;;;28.92;31.00;100591.88;5002752;28;45234;-59
2022/07/25 00:07:35;;;;;;;;;17.50;15.75;;;;;28.91;31.39;100589.31;5003133;28;45362;-59
2022/07/25 00:10:00;;;;;;;;;14.75;13.75;;;;;28.86;31.42;100593.28;5002484;28;45238;-60
2022/07/25 00:12:25;;;;;;;;;12.50;12.00;;;;;28.83;31.60;100595.41;5002716;28;45911;-60
2022/07/25 00:14:51;;;;;;;;;13.00;13.00;;;;;28.78;31.58;100582.34;5001515;28;45407;-60
2022/07/25 00:17:16;;;;;;;;;14.75;13.00;;;;;28.75;31.63;100568.28;5003023;28;45375;-59
2022/07/25 00:19:41;;;;;;;;;13.00;13.00;;;;;28.70;31.61;100568.69;5002595;28;45435;-60
2022/07/25 00:22:07;;;;;;;;;16.00;16.00;;;;;28.70;31.35;100566.00;5002128;28;45317;-60
2022/07/25 00:24:32;;;;;;;;;15.00;13.75;;;;;28.66;31.91;100565.38;5002190;28;45333;-60
2022/07/25 00:26:58;;;;;;;;;14.75;14.25;;;;;28.66;32.06;100561.84;5002771;28;45266;-60
2022/07/25 00:29:23;;;;;;;;;14.50;13.50;;;;;28.62;32.28;100555.88;5002432;28;45336;-60
2022/07/25 00:31:49;;;;;;;;;19.00;17.00;;;;;28.61;31.73;100553.31;5002331;28;46332;-60
2022/07/25 00:34:14;;;;;;;;;13.25;13.25;;;;;28.60;31.55;100552.44;5002374;28;45351;-59
2022/07/25 00:36:39;;;;;;;;;16.25;13.75;;;;;28.58;31.86;100553.59;5002650;28;45298;-60
2022/07/25 00:39:05;;;;;;;;;12.75;12.75;;;;;28.54;31.71;100551.19;5002401;28;45338;-59
2022/07/25 00:41:30;;;;;;;;;14.25;13.25;;;;;28.53;32.17;100554.03;5001982;28;46872;-59
2022/07/25 00:43:56;;;;;;;;;20.25;17.50;;;;;28.50;32.16;100547.06;5002376;28;45329;-59
2022/07/25 00:46:21;;;;;;;;;17.00;17.00;;;;;28.49;32.20;100553.47;5001352;28;45298;-59
2022/07/25 00:48:47;;;;;;;;;13.25;13.25;;;;;28.46;32.63;100542.94;5002136;28;45505;-60
2022/07/25 00:51:14;;;;;;;;;15.00;15.00;;;;;28.44;31.80;100541.38;5016333;28;45415;-59
2022/07/25 00:53:39;;;;;;;;;18.50;16.75;;;;;28.42;32.20;100532.56;5008870;28;45192;-60
2022/07/25 00:56:05;;;;;;;;;15.00;14.00;;;;;28.41;32.48;100539.81;5001823;28;45302;-60
2022/07/25 00:58:31;;;;;;;;;12.75;12.75;;;;;28.40;32.11;100535.41;5002014;28;45664;-60
2022/07/25 01:00:59;;;;;;;;;14.25;12.00;;;;;28.38;32.51;100532.84;5002345;28;45658;-60
2022/07/25 01:03:24;;;;;;;;;13.75;13.75;;;;;28.38;32.22;100532.84;5008074;28;45364;-60
2022/07/25 01:05:49;;;;;;;;;14.25;14.25;;;;;28.37;32.66;100535.69;5002142;28;45289;-60
2022/07/25 01:08:17;;;;;;;;;15.75;14.50;;;;;28.36;32.71;100536.69;5001797;28;45443;-60
2022/07/25 01:10:43;;;;;;;;;18.25;15.50;;;;;28.33;32.26;100537.81;5001704;28;45293;-60
2022/07/25 01:13:08;;;;;;;;;17.00;15.25;;;;;28.33;32.92;100540.53;5001638;28;45270;-60
2022/07/25 01:15:34;;;;;;;;;15.75;14.25;;;;;28.32;32.46;100543.38;5002115;28;45267;-60
2022/07/25 01:17:59;;;;;;;;;17.75;16.00;;;;;28.31;32.43;100544.38;5016796;28;45655;-60
2022/07/25 01:20:26;;;;;;;;;14.75;14.00;;;;;28.28;32.74;100540.09;5001686;28;46016;-60
2022/07/25 01:22:53;;;;;;;;;19.50;14.25;;;;;28.26;32.88;100533.13;5000392;28;45577;-60
2022/07/25 01:25:19;;;;;;;;;18.00;17.75;;;;;28.19;32.54;100522.06;5001615;28;45331;-59
2022/07/25 01:27:45;;;;;;;;;17.50;16.00;;;;;28.24;33.00;100532.41;5001325;28;45488;-60
2022/07/25 01:30:14;;;;;;;;;15.00;14.25;;;;;28.22;33.21;100532.56;5001390;28;47674;-60
2022/07/25 01:32:40;;;;;;;;;14.25;14.25;;;;;28.19;33.07;100539.09;5001099;28;45484;-59
2022/07/25 01:35:06;;;;;;;;;11.50;11.50;;;;;28.13;33.52;100566.69;5001614;28;45222;-60
2022/07/25 01:37:32;;;;;;;;;16.25;16.25;;;;;28.07;33.85;100556.44;5001258;28;45475;-59
2022/07/25 01:39:57;;;;;;;;;17.75;15.75;;;;;28.01;34.04;100555.13;5001018;28;45989;-60
2022/07/25 01:42:22;;;;;;;;;16.25;15.00;;;;;27.96;33.67;100553.81;5001198;28;45326;-60
2022/07/25 01:44:48;;;;;;;;;16.00;16.00;;;;;27.86;34.53;100568.16;5001571;28;45398;-59
2022/07/25 01:47:15;;;;;;;;;15.75;15.75;;;;;27.80;34.34;100559.75;5001062;28;45529;-59
2022/07/25 01:49:41;;;;;;;;;17.50;17.50;;;;;27.76;34.07;100564.59;5003705;28;46012;-59
2022/07/25 01:52:06;;;;;;;;;17.25;16.00;;;;;27.70;34.36;100565.16;5019262;28;45202;-59
2022/07/25 01:54:32;;;;;;;;;15.00;14.75;;;;;27.64;34.29;100569.25;5001088;28;45532;-59
2022/07/25 01:56:57;;;;;;;;;17.25;16.25;;;;;27.60;34.22;100564.25;5001080;28;45408;-59
2022/07/25 01:59:22;;;;;;;;;18.25;15.75;;;;;27.57;33.97;100551.88;5001309;28;46439;-59
2022/07/25 02:01:48;;;;;;;;;17.50;14.75;;;;;27.51;34.32;100545.19;5008232;28;45373;-59
2022/07/25 02:04:13;;;;;;;;;14.50;13.50;;;;;27.52;34.80;100543.34;5001528;28;45227;-59
2022/07/25 02:06:40;;;;;;;;;16.25;13.25;;;;;27.52;34.73;100543.34;4999732;28;45556;-59
2022/07/25 02:09:06;;;;;;;;;20.50;16.75;;;;;27.51;34.22;100544.34;5001154;28;46105;-59
2022/07/25 02:11:32;;;;;;;;;15.25;15.00;;;;;27.49;34.64;100543.63;5000511;28;45380;-59
2022/07/25 02:13:57;;;;;;;;;15.00;13.75;;;;;27.48;34.34;100547.31;5001090;28;45316;-59
2022/07/25 02:16:22;;;;;;;;;14.75;14.25;;;;;27.50;34.53;100545.34;5000665;28;45309;-59
2022/07/25 02:18:48;;;;;;;;;20.75;18.25;;;;;27.47;34.26;100541.09;5000710;28;46118;-59
2022/07/25 02:21:13;;;;;;;;;16.25;13.25;;;;;27.47;34.19;100538.38;5000710;28;45249;-59
2022/07/25 02:23:39;;;;;;;;;11.50;11.50;;;;;27.46;34.76;100541.19;5000912;28;45356;-59
2022/07/25 02:26:05;;;;;;;;;17.00;16.00;;;;;27.46;34.54;100536.66;5000503;28;45293;-59
2022/07/25 02:28:30;;;;;;;;;14.50;13.50;;;;;27.45;34.63;100524.16;5000787;28;45222;-59
2022/07/25 02:30:55;;;;;;;;;16.00;14.75;;;;;27.43;34.58;100526.13;5000475;28;45432;-59
2022/07/25 02:33:21;;;;;;;;;17.00;16.00;;;;;27.44;34.59;100522.44;5000778;28;45411;-59
2022/07/25 02:35:46;;;;;;;;;19.00;16.50;;;;;27.44;35.08;100538.63;5000592;28;45448;-59
2022/07/25 02:38:18;;;;;;;;;15.75;15.75;;;;;27.43;34.51;100517.19;5000523;28;45232;-59
2022/07/25 02:40:47;;;;;;;;;15.50;15.50;;;;;27.41;35.32;100528.97;5000048;28;45330;-59
2022/07/25 02:43:12;;;;;;;;;16.00;13.50;;;;;27.41;35.25;100520.03;5000678;28;45259;-59
2022/07/25 02:45:37;;;;;;;;;15.75;13.75;;;;;27.41;34.94;100517.34;5000171;28;45469;-59
2022/07/25 02:48:03;;;;;;;;;15.00;13.25;;;;;27.39;34.89;100512.06;5000310;28;46321;-59
2022/07/25 02:50:29;;;;;;;;;18.25;15.50;;;;;27.39;34.80;100514.75;5008742;28;45298;-59
2022/07/25 02:52:54;;;;;;;;;16.00;15.75;;;;;27.36;34.76;100520.41;5013477;28;45295;-59
2022/07/25 02:55:19;;;;;;;;;16.00;16.00;;;;;27.35;35.26;100518.69;5000123;28;45210;-59
2022/07/25 02:57:45;;;;;;;;;17.00;14.75;;;;;27.34;35.06;100518.84;4998911;28;46737;-59
2022/07/25 03:00:11;;;;;;;;;16.50;16.50;;;;;27.32;35.48;100523.50;5000079;28;45183;-59
2022/07/25 03:02:36;;;;;;;;;18.50;16.25;;;;;27.27;35.06;100521.25;5007599;28;45344;-59
2022/07/25 03:05:05;;;;;;;;;13.75;13.75;;;;;27.25;35.69;100524.03;5015213;28;45334;-59
2022/07/25 03:07:30;;;;;;;;;12.75;12.75;;;;;27.21;35.45;100517.22;5000128;28;46799;-59
2022/07/25 03:09:56;;;;;;;;;18.00;16.00;;;;;27.16;35.59;100519.47;4999138;28;45332;-59
2022/07/25 03:12:21;;;;;;;;;16.75;14.25;;;;;27.14;35.59;100513.34;5000639;28;45417;-60
2022/07/25 03:14:46;;;;;;;;;15.00;15.00;;;;;27.08;35.96;100514.75;4999989;28;45235;-59
2022/07/25 03:17:12;;;;;;;;;13.50;13.00;;;;;27.07;35.87;100521.13;4999991;28;46106;-59
2022/07/25 03:19:37;;;;;;;;;14.00;14.00;;;;;27.04;35.40;100515.16;4999950;28;45327;-59
2022/07/25 03:22:03;;;;;;;;;15.75;14.50;;;;;27.02;35.41;100522.50;4999988;28;45135;-59
2022/07/25 03:24:28;;;;;;;;;15.00;13.00;;;;;27.00;35.50;100524.50;4999669;28;45409;-59
2022/07/25 03:26:54;;;;;;;;;16.50;14.25;;;;;26.97;35.49;100530.16;4999754;28;46480;-58
2022/07/25 03:29:19;;;;;;;;;8.25;8.25;;;;;26.93;35.44;100533.13;4998804;28;45295;-58
2022/07/25 03:31:44;;;;;;;;;9.25;9.25;;;;;26.86;35.73;100531.94;4999826;28;45235;-59
2022/07/25 03:34:10;;;;;;;;;9.25;8.75;;;;;26.82;36.03;100535.91;4999682;28;45540;-58
2022/07/25 03:36:35;;;;;;;;;7.25;7.25;;;;;26.74;35.81;100533.88;4999749;28;46730;-59
2022/07/25 03:39:01;;;;;;;;;9.25;9.25;;;;;26.70;35.74;100540.47;4999870;28;45259;-59
2022/07/25 03:41:26;;;;;;;;;8.50;7.50;;;;;26.64;35.15;100541.00;4999453;28;45937;-59
2022/07/25 03:43:51;;;;;;;;;8.25;7.00;;;;;26.52;35.63;100542.88;4999980;28;45368;-59
2022/07/25 03:46:17;;;;;;;;;4.00;4.00;;;;;26.41;35.94;100532.19;5014505;28;46426;-59
2022/07/25 03:48:42;;;;;;;;;8.25;7.00;;;;;26.40;36.04;100546.63;4999707;28;45294;-59
2022/07/25 03:51:07;;;;;;;;;7.75;7.75;;;;;26.33;35.20;100554.38;5013665;28;45202;-59
2022/07/25 03:54:00;;;;;;;;;6.50;4.50;;;;;26.23;35.43;100550.75;5005646;28;45234;-59
2022/07/25 03:56:19;;;;;;;;;6.50;6.00;;;;;26.16;35.93;100563.84;4999027;28;45404;-59
2022/07/25 03:58:45;;;;;;;;;5.00;5.00;;;;;26.07;35.51;100564.63;4999400;28;45512;-59
2022/07/25 04:01:10;;;;;;;;;4.00;4.00;;;;;26.00;35.55;100572.31;5000834;28;45267;-59
2022/07/25 04:03:35;;;;;;;;;8.25;8.00;;;;;25.91;35.54;100568.53;5004369;28;45251;-59
2022/07/25 04:06:00;;;;;;;;;6.75;5.75;;;;;25.86;35.74;100572.59;4999378;28;45258;-59
2022/07/25 04:08:26;;;;;;;;;7.00;7.00;;;;;25.80;35.42;100579.34;4999466;28;45300;-59
2022/07/25 04:10:51;;;;;;;;;6.25;6.25;;;;;25.72;35.76;100585.34;4999390;28;45408;-59
2022/07/25 04:13:16;;;;;;;;;4.50;4.50;;;;;25.70;35.47;100589.97;4999228;28;45222;-59
2022/07/25 04:15:42;;;;;;;;;5.00;5.00;;;;;25.64;35.77;100587.78;4999122;28;45361;-59
2022/07/25 04:18:07;;;;;;;;;6.50;6.50;;;;;25.60;35.27;100589.84;4999326;28;45323;-59
2022/07/25 04:20:32;;;;;;;;;7.25;5.25;;;;;25.55;35.59;100584.00;4999430;28;45242;-59
2022/07/25 04:22:58;;;;;;;;;5.50;4.50;;;;;25.52;35.97;100597.69;5002474;28;45286;-59
2022/07/25 04:25:23;;;;;;;;;5.00;4.00;;;;;25.49;35.51;100592.56;5002575;28;45282;-59
2022/07/25 04:27:48;;;;;;;;;4.75;4.75;;;;;25.47;35.51;100595.38;5002449;28;45206;-59
2022/07/25 04:30:14;;;;;;;;;4.75;4.75;;;;;25.46;35.52;100598.19;5002798;28;45243;-59
2022/07/25 04:32:39;;;;;;;;;4.00;4.00;;;;;25.45;35.37;100599.16;5002353;28;45331;-59
2022/07/25 04:35:05;;;;;;;;;3.25;3.25;;;;;25.44;35.54;100592.06;5002506;28;46207;-60
2022/07/25 04:37:31;;;;;;;;;3.75;3.00;;;;;25.40;35.17;100599.53;5002334;28;45319;-59
2022/07/25 04:39:56;;;;;;;;;4.25;3.50;;;;;25.41;35.00;100613.84;5001796;28;45290;-60
2022/07/25 04:42:22;;;;;;;;;3.75;3.00;;;;;25.41;34.89;100613.84;5002350;28;45273;-59
2022/07/25 04:44:47;;;;;;;;;5.00;5.00;;;;;25.39;34.80;100615.78;5001200;28;46904;-60
2022/07/25 04:47:13;;;;;;;;;2.25;2.25;;;;;25.35;34.85;100612.44;5002233;28;45438;-59
2022/07/25 04:49:38;;;;;;;;;2.00;2.00;;;;;25.34;34.80;100609.88;5004205;28;45349;-60
2022/07/25 04:52:03;;;;;;;;;3.50;3.50;;;;;25.28;34.56;100609.38;5022111;28;45264;-59
2022/07/25 04:54:29;;;;;;;;;4.75;3.75;;;;;25.29;34.93;100616.44;5001822;28;46552;-60
2022/07/25 04:56:54;;;;;;;;;4.25;4.25;;;;;25.23;34.55;100611.59;5001960;28;47444;-59
2022/07/25 04:59:19;;;;;;;;;3.00;3.00;;;;;25.22;34.98;100615.25;5002302;28;45305;-60
2022/07/25 05:01:45;;;;;;;;;3.00;3.00;;;;;25.23;34.76;100616.97;5008922;28;45463;-60
2022/07/25 05:04:10;;;;;;;;;1.25;1.25;;;;;25.20;34.79;100611.81;5020272;28;46324;-59
2022/07/25 05:06:35;;;;;;;;;5.25;4.25;;;;;25.19;34.84;100609.25;5020590;28;46592;-59
2022/07/25 05:09:01;;;;;;;;;2.00;2.00;;;;;25.14;34.97;100623.03;5021911;28;45361;-60
2022/07/25 05:11:26;;;;;;;;;3.00;3.00;;;;;25.15;34.73;100624.75;5021591;28;45525;-59
2022/07/25 05:13:51;;;;;;;;;3.00;3.00;;;;;25.13;34.82;100637.44;5021622;28;46128;-59
2022/07/25 05:16:16;;;;;;;;;4.25;3.50;;;;;25.11;35.17;100634.03;5021506;28;45256;-60
2022/07/25 05:18:42;;;;;;;;;3.75;3.25;;;;;25.12;35.34;100638.44;5021785;28;45293;-59
2022/07/25 05:21:12;;;;;;;;;2.50;2.50;;;;;25.08;35.47;100636.94;5021675;28;45158;-59
2022/07/25 05:23:38;;;;;;;;;3.00;3.00;;;;;25.10;35.27;100645.75;5036704;28;46082;-59
2022/07/25 05:26:04;;;;;;;;;21.25;19.75;;;;;25.08;35.45;100645.91;5021235;28;45324;-60
2022/07/25 05:28:29;;;;;;;;;3.50;3.00;;;;;25.07;35.50;100645.97;5021498;28;45320;-59
2022/07/25 05:30:54;;;;;;;;;4.00;2.50;;;;;25.07;35.56;100651.34;5021128;28;46291;-59
2022/07/25 05:33:19;;;;;;;;;2.50;2.25;;;;;25.08;35.74;100648.56;5020899;28;45340;-60
2022/07/25 05:35:45;;;;;;;;;2.00;2.00;;;;;25.09;35.76;100649.44;5021314;28;45351;-59
2022/07/25 05:38:10;;;;;;;;;2.25;2.25;;;;;25.09;35.84;100661.06;5021412;28;45289;-59
2022/07/25 05:40:35;;;;;;;;;7.50;2.75;;;;;25.08;36.32;100664.72;5020876;28;45547;-59
2022/07/25 05:43:01;;;;;;;;;4.00;2.00;;;;;25.07;36.24;100663.00;5021104;28;46026;-59
2022/07/25 05:45:26;;;;;;;;;1.50;1.50;;;;;25.06;36.08;100663.13;5021235;28;45403;-59
2022/07/25 05:47:51;;;;;;;;;2.00;2.00;;;;;25.07;36.31;100667.50;5021159;28;45357;-59
2022/07/25 05:50:17;;;;;;;;;2.50;2.50;;;;;25.07;36.31;100667.50;5021147;28;45376;-60
2022/07/25 05:52:42;;;;;;;;;3.75;2.25;;;;;25.03;36.45;100661.53;5015495;28;45193;-59
2022/07/25 05:55:08;;;;;;;;;3.75;2.75;;;;;25.05;36.30;100664.94;5000920;28;45262;-59
2022/07/25 05:57:34;;;;;;;;;4.00;1.25;;;;;25.03;36.24;100671.41;5001184;28;45238;-59
2022/07/25 06:00:00;;;;;;;;;2.75;2.50;;;;;25.01;36.90;100666.16;5016472;28;45571;-59
2022/07/25 06:02:25;;;;;;;;;2.00;2.00;;;;;24.99;36.57;100670.75;5008456;28;46953;-59
2022/07/25 06:04:50;;;;;;;;;4.50;4.00;;;;;24.95;36.81;100672.81;4999581;28;45252;-60
2022/07/25 06:07:16;;;;;;;;;6.50;4.75;;;;;24.90;36.70;100679.53;5001316;28;45306;-60
2022/07/25 06:09:41;;;;;;;;;4.25;2.00;;;;;24.86;36.95;100686.13;5000862;28;45619;-60
2022/07/25 06:12:06;;;;;;;;;4.25;3.00;;;;;24.80;36.86;100684.75;5000775;28;45285;-60
2022/07/25 06:14:32;;;;;;;;;4.75;4.00;;;;;24.74;37.00;100686.09;5001227;28;45369;-60
2022/07/25 06:16:57;;;;;;;;;3.75;2.75;;;;;24.67;37.39;100682.97;5000768;28;45336;-61
2022/07/25 06:19:23;;;;;;;;;2.75;1.25;;;;;24.67;37.09;100699.09;5000988;28;45436;-60
2022/07/25 06:21:49;;;;;;;;;3.00;2.50;;;;;24.64;36.94;100699.34;5000647;28;46067;-61
2022/07/25 06:24:14;;;;;;;;;3.50;2.00;;;;;24.59;37.08;100696.09;5000574;28;45332;-59
2022/07/25 06:26:39;;;;;;;;;5.25;3.00;;;;;24.55;37.41;100696.44;5000728;28;45831;-59
2022/07/25 06:29:05;;;;;;;;;3.00;2.25;;;;;24.54;37.63;100703.66;5000909;28;45281;-59
2022/07/25 06:31:31;;;;;;;;;3.25;3.25;;;;;24.50;37.54;100699.44;5000379;28;45985;-60
2022/07/25 06:33:57;;;;;;;;;6.50;2.00;;;;;24.46;37.54;100709.56;5000681;28;45540;-59
2022/07/25 06:36:22;;;;;;;;;2.75;2.75;;;;;24.39;37.77;100710.13;5000605;28;45337;-59
2022/07/25 06:38:48;;;;;;;;;5.00;3.50;;;;;24.39;38.00;100715.50;5000669;28;45267;-59
2022/07/25 06:41:14;;;;;;;;;2.75;2.50;;;;;24.33;38.04;100708.75;5000152;28;46392;-59
2022/07/25 06:43:40;;;;;;;;;4.00;3.00;;;;;24.34;37.94;100718.53;4999652;28;45290;-59
2022/07/25 06:46:06;;;;;;;;;2.25;2.25;;;;;24.30;38.03;100719.72;5000378;28;45313;-59
2022/07/25 06:48:31;;;;;;;;;2.25;2.25;;;;;24.31;37.94;100719.63;4999197;28;45433;-59
2022/07/25 06:50:56;;;;;;;;;4.00;2.75;;;;;24.30;37.89;100723.28;5012725;28;45426;-59
2022/07/25 06:53:22;;;;;;;;;3.50;3.50;;;;;24.31;38.35;100721.44;5024549;28;45295;-61
2022/07/25 06:55:47;;;;;;;;;5.25;5.25;;;;;24.29;38.14;100721.53;5000109;28;45492;-59
2022/07/25 06:58:13;;;;;;;;;2.75;2.50;;;;;24.31;38.12;100725.00;5000426;28;45408;-59
2022/07/25 07:00:38;;;;;;;;;3.00;3.00;;;;;24.26;38.22;100719.06;5000054;28;45467;-58
2022/07/25 07:03:03;;;;;;;;;2.50;2.50;;;;;24.32;38.17;100731.22;5007383;28;45454;-59
2022/07/25 07:05:31;;;;;;;;;2.75;2.75;;;;;24.34;38.47;100737.34;5000279;28;45441;-59
2022/07/25 07:07:57;;;;;;;;;3.75;3.00;;;;;24.32;38.54;100737.41;5000229;28;45338;-58
2022/07/25 07:10:23;;;;;;;;;4.00;4.00;;;;;24.32;38.75;100737.41;4999687;28;46122;-59
2022/07/25 07:12:50;;;;;;;;;5.00;3.00;;;;;24.27;38.91;100739.59;5000041;28;45502;-59
2022/07/25 07:15:16;;;;;;;;;4.75;3.00;;;;;24.29;38.83;100755.59;5018099;28;45312;-59
2022/07/25 07:17:41;;;;;;;;;3.00;3.00;;;;;24.30;38.75;100762.66;5019723;28;45352;-59
2022/07/25 07:20:08;;;;;;;;;1.50;1.50;;;;;24.29;39.12;100759.13;5019615;28;46229;-60
2022/07/25 07:22:47;;;;;;;;;3.00;2.25;;;;;24.30;38.80;100757.28;5019840;28;45390;-59
2022/07/25 07:25:14;;;;;;;;;3.25;3.00;;;;;24.31;38.83;100764.38;5019506;28;45244;-59
2022/07/25 07:27:40;;;;;;;;;4.25;3.00;;;;;24.32;39.19;100755.38;5019768;28;45282;-59
2022/07/25 07:30:06;;;;;;;;;4.50;4.00;;;;;24.31;39.25;100761.69;5019504;28;46569;-59
2022/07/25 07:32:32;;;;;;;;;3.25;3.25;;;;;24.34;39.49;100770.41;5019545;28;45423;-59
2022/07/25 07:34:57;;;;;;;;;4.00;4.00;;;;;24.36;39.29;100758.69;5019737;28;45241;-59
2022/07/25 07:37:22;;;;;;;;;4.00;4.00;;;;;24.31;39.14;100751.84;5018421;28;45345;-59
2022/07/25 07:39:49;;;;;;;;;5.25;5.00;;;;;24.42;38.98;100771.69;5019324;28;47664;-59
2022/07/25 07:42:14;;;;;;;;;5.00;3.75;;;;;24.42;39.48;100769.00;5019595;28;46177;-59
2022/07/25 07:44:39;;;;;;;;;3.00;3.00;;;;;24.45;39.42;100766.06;5019678;28;45413;-59
2022/07/25 07:47:05;;;;;;;;;4.25;4.25;;;;;24.48;39.50;100768.56;5017991;28;49609;-57
2022/07/25 07:49:30;;;;;;;;;3.25;3.25;;;;;24.44;39.51;100765.22;5034428;28;47072;-58
2022/07/25 07:51:55;;;;;;;;;3.00;3.00;;;;;24.46;39.54;100768.63;5017220;28;45547;-58
2022/07/25 07:57:05;;;;;;;;;2.50;2.50;;;;;24.44;39.79;100775.97;5003177;28;45455;-58
2022/07/25 07:59:30;;;;;;;;;4.00;4.00;;;;;24.46;40.01;100786.59;5002916;28;45352;-58
2022/07/25 08:01:55;;;;;;;;;4.50;4.25;;;;;24.45;40.06;100791.13;5010963;28;45326;-58
2022/07/25 08:04:21;;;;;;;;;4.00;3.50;;;;;24.45;39.83;100779.50;5003157;28;45771;-59
2022/07/25 08:06:46;;;;;;;;;3.00;1.00;;;;;24.47;39.69;100791.84;5002564;28;45563;-59
2022/07/25 08:09:11;;;;;;;;;2.75;2.50;;;;;24.51;40.10;100789.81;5002585;28;45262;-59
2022/07/25 08:11:37;;;;;;;;;5.00;4.00;;;;;24.49;40.33;100792.59;5002886;28;45368;-59
2022/07/25 08:14:04;;;;;;;;;3.75;3.75;;;;;24.50;40.11;100802.38;4985444;28;45380;-59
2022/07/25 08:16:29;;;;;;;;;5.75;5.00;;;;;24.45;40.39;100785.75;5002452;28;45364;-59
2022/07/25 08:18:54;;;;;;;;;4.00;4.00;;;;;24.49;40.28;100800.66;5002585;28;45165;-60
2022/07/25 08:21:20;;;;;;;;;4.00;4.00;;;;;24.57;40.00;100796.56;5002723;28;45159;-59
2022/07/25 08:23:46;;;;;;;;;3.00;1.00;;;;;24.60;40.22;100799.91;5002949;28;45507;-59
2022/07/25 08:26:13;;;;;;;;;4.75;3.25;;;;;24.61;40.06;100804.28;5001034;28;45362;-59
2022/07/25 08:28:39;;;;;;;;;4.25;3.50;;;;;24.65;40.02;100813.88;5002924;28;45345;-59
2022/07/25 08:31:05;;;;;;;;;4.00;2.00;;;;;24.69;40.18;100808.28;5002360;28;45252;-60
2022/07/25 08:33:31;;;;;;;;;3.00;1.75;;;;;24.74;40.17;100806.09;5002532;28;45408;-59
2022/07/25 08:35:57;;;;;;;;;2.25;2.00;;;;;24.75;40.32;100803.31;5017664;28;45358;-57
2022/07/25 08:38:24;;;;;;;;;4.00;2.00;;;;;24.80;40.18;100811.03;5001106;28;45978;-58
2022/07/25 08:40:50;;;;;;;;;2.50;2.00;;;;;24.77;40.35;100798.69;5002132;28;45338;-57
2022/07/25 08:43:17;;;;;;;;;2.00;2.00;;;;;24.80;41.02;100822.66;5002491;28;45296;-57
2022/07/25 08:45:45;;;;;;;;;4.25;2.00;;;;;24.85;40.71;100825.00;5002089;28;45310;-57
2022/07/25 08:48:11;;;;;;;;;2.00;2.00;;;;;24.88;41.20;100822.09;5002159;28;46120;-57
2022/07/25 08:50:37;;;;;;;;;3.00;2.00;;;;;24.92;40.77;100817.34;5010356;28;45413;-57
2022/07/25 08:53:03;;;;;;;;;1.50;0.00;;;;;24.94;41.17;100820.78;5029392;28;45448;-58
2022/07/25 08:55:29;;;;;;;;;3.00;1.00;;;;;25.01;41.13;100824.72;5001810;28;45258;-58
2022/07/25 08:57:54;;;;;;;;;1.75;1.75;;;;;25.06;41.12;100814.50;5017189;28;46711;-58
2022/07/25 09:00:24;;;;;;;;;2.00;1.25;;;;;25.14;40.72;100820.16;5002312;28;45234;-59
2022/07/25 09:03:01;;;;;;;;;3.00;2.00;;;;;25.18;40.66;100825.31;5009407;28;45317;-58
2022/07/25 09:05:30;;;;;;;;;0.50;0.50;;;;;25.23;40.67;100832.06;5001861;28;45432;-59
2022/07/25 09:08:04;;;;;;;;;2.00;2.00;;;;;25.26;40.78;100828.28;5001271;28;47081;-59
2022/07/25 09:10:30;;;;;;;;;1.50;1.25;;;;;25.35;41.30;100832.13;5001576;28;45241;-59
2022/07/25 09:13:00;;;;;;;;;1.50;1.50;;;;;25.42;40.27;100838.75;5002088;28;45238;-58
2022/07/25 09:15:29;;;;;;;;;2.50;2.00;;;;;25.50;40.79;100838.16;5001812;28;45481;-59
2022/07/25 09:17:56;;;;;;;;;3.25;1.25;;;;;25.58;40.39;100839.31;5001697;28;46424;-58
2022/07/25 09:20:22;;;;;;;;;1.00;1.00;;;;;25.68;40.89;100844.00;5001926;28;45178;-59
2022/07/25 09:22:47;;;;;;;;;3.00;2.00;;;;;25.78;40.73;100840.47;5001772;28;45450;-59
2022/07/25 09:25:24;;;;;;;;;1.25;1.25;;;;;25.86;40.71;100837.22;5001024;28;45539;-59
2022/07/25 09:27:50;;;;;;;;;2.50;2.50;;;;;25.94;40.50;100842.84;5001683;28;45460;-59
2022/07/25 09:30:16;;;;;;;;;3.25;3.25;;;;;26.01;40.35;100853.13;5001820;28;45439;-59
2022/07/25 09:32:42;;;;;;;;;1.25;1.25;;;;;26.09;40.15;100850.75;5001511;28;45253;-59
2022/07/25 09:35:08;;;;;;;;;1.00;1.00;;;;;26.12;40.39;100842.41;5001655;28;45178;-59
2022/07/25 09:37:33;;;;;;;;;2.00;2.00;;;;;26.13;40.06;100843.28;5000242;28;48387;-59
2022/07/25 09:39:59;;;;;;;;;2.25;1.00;;;;;26.10;40.96;100842.53;5001545;28;45316;-58
2022/07/25 09:42:33;;;;;;;;;2.00;1.75;;;;;26.20;40.59;100847.19;5001504;28;45230;-59
2022/07/25 09:45:10;;;;;;;;;2.75;1.00;;;;;26.18;40.28;100847.31;5001475;28;45321;-58
2022/07/25 09:47:38;;;;;;;;;2.25;2.25;;;;;26.25;40.14;100850.38;5000738;28;46245;-58
2022/07/25 09:50:05;;;;;;;;;3.00;2.00;;;;;26.26;40.74;100858.34;5005304;28;45362;-59
2022/07/25 09:52:32;;;;;;;;;1.25;1.25;;;;;26.35;40.82;100863.97;5016165;28;45265;-59
2022/07/25 09:55:01;;;;;;;;;2.00;2.00;;;;;26.38;40.74;100863.75;5000946;28;45444;-58
2022/07/25 09:57:27;;;;;;;;;1.00;1.00;;;;;26.46;40.21;100863.97;5001161;28;46227;-58
2022/07/25 09:59:52;;;;;;;;;2.75;1.50;;;;;26.43;40.03;100856.16;5001245;28;45294;-59
2022/07/25 10:02:34;;;;;;;;;4.00;2.00;;;;;26.48;39.88;100856.66;5008923;28;45356;-58
2022/07/25 10:05:13;;;;;;;;;2.25;1.25;;;;;26.49;40.08;100863.75;4999941;28;45437;-59
2022/07/25 10:07:43;;;;;;;;;2.00;2.00;;;;;26.55;40.01;100865.09;5001087;28;46007;-58
2022/07/25 10:10:20;;;;;;;;;1.00;0.25;;;;;26.53;40.45;100864.38;5001452;28;45531;-58
2022/07/25 10:13:01;;;;;;;;;1.00;1.00;;;;;26.57;39.97;100869.38;5011515;28;45380;-59
2022/07/25 10:15:39;;;;;;;;;2.50;1.75;;;;;26.57;40.39;100869.38;5020636;28;45315;-59
2022/07/25 10:18:07;;;;;;;;;2.00;2.00;;;;;26.56;39.79;100864.09;5019993;28;45449;-60
2022/07/25 10:20:33;;;;;;;;;2.75;1.75;;;;;26.67;39.81;100863.25;5020016;28;45465;-58
2022/07/25 10:22:58;;;;;;;;;2.75;2.75;;;;;26.68;39.56;100865.81;5020642;28;45334;-58
2022/07/25 10:25:24;;;;;;;;;2.00;2.00;;;;;26.74;40.03;100862.66;5020537;28;45431;-57
2022/07/25 10:27:59;;;;;;;;;3.00;1.00;;;;;26.74;39.27;100870.75;5020533;28;45524;-58
2022/07/25 10:30:27;;;;;;;;;2.00;2.00;;;;;26.67;39.87;100858.72;5020676;28;45359;-59
2022/07/25 10:33:10;;;;;;;;;2.00;2.00;;;;;26.72;39.74;100879.91;5020424;28;45328;-58
2022/07/25 10:35:36;;;;;;;;;3.25;3.25;;;;;26.65;39.99;100871.44;5020446;28;45385;-59
2022/07/25 10:38:03;;;;;;;;;1.00;1.00;;;;;26.73;39.61;100887.03;5020223;28;45375;-57
2022/07/25 10:40:42;;;;;;;;;2.00;2.00;;;;;26.68;40.04;100875.72;5020087;28;45401;-57
2022/07/25 10:43:20;;;;;;;;;4.00;3.00;;;;;26.72;39.68;100878.06;5020513;28;45348;-57
2022/07/25 10:45:51;;;;;;;;;2.00;1.00;;;;;26.75;39.74;100887.75;5020155;28;45272;-57
2022/07/25 10:48:26;;;;;;;;;1.00;1.00;;;;;26.75;39.24;100877.88;5020159;28;45380;-58
2022/07/25 10:51:00;;;;;;;;;2.00;2.00;;;;;26.75;39.24;100874.28;5018868;28;45381;-58
2022/07/25 10:53:46;;;;;;;;;0.50;0.00;;;;;26.71;39.74;100889.81;5007938;28;45267;-58
2022/07/25 10:56:23;;;;;;;;;2.00;2.00;;;;;26.69;39.25;100888.22;4998816;28;45200;-58
2022/07/25 10:58:50;;;;;;;;;3.25;2.25;;;;;26.71;39.29;100886.28;5000244;28;45499;-58
2022/07/25 11:01:32;;;;;;;;;2.25;2.25;;;;;26.72;39.07;100894.22;5003315;28;45448;-59
2022/07/25 11:04:03;;;;;;;;;1.25;1.25;;;;;26.68;39.27;100895.47;5018698;28;45458;-59
2022/07/25 11:06:37;;;;;;;;;3.00;3.00;;;;;26.64;39.74;100885.91;5019987;28;45237;-59
2022/07/25 11:09:12;;;;;;;;;1.75;1.75;;;;;26.58;39.22;100881.88;5019523;28;46224;-59
2022/07/25 11:11:47;;;;;;;;;1.75;1.50;;;;;26.58;39.10;100897.19;5019854;28;45237;-59
2022/07/25 11:14:17;;;;;;;;;2.00;2.00;;;;;26.49;38.97;100888.00;5018749;28;45200;-59
2022/07/25 11:16:47;;;;;;;;;2.00;2.00;;;;;26.56;39.06;100899.97;5019674;28;45496;-59
2022/07/25 11:19:21;;;;;;;;;5.00;5.00;;;;;26.56;38.95;100899.97;5019715;28;45267;-59